createdAt,value
2022-10-02T00:01:27.192Z,99513.72
2022-10-02T00:04:21.518Z,99474.47
2022-10-02T00:07:12.798Z,99471.63
2022-10-02T00:10:04.690Z,99512.75
2022-10-02T00:12:58.178Z,99513.00
2022-10-02T00:15:46.641Z,99528.59
2022-10-02T00:18:38.491Z,99501.13
2022-10-02T00:21:49.428Z,99477.19
2022-10-02T00:24:40.472Z,99409.22
2022-10-02T00:27:41.567Z,99461.72
2022-10-02T00:30:35.066Z,99478.34
2022-10-02T00:33:32.782Z,99471.06
2022-10-02T00:36:33.077Z,99446.53
2022-10-02T00:39:34.815Z,99438.50
2022-10-02T00:42:50.600Z,99441.16
2022-10-02T00:46:05.544Z,99435.75
2022-10-02T00:49:06.529Z,99405.25
2022-10-02T00:52:10.800Z,99428.38
2022-10-02T00:55:18.292Z,99410.16
2022-10-02T00:58:32.058Z,99418.06
2022-10-02T01:01:22.749Z,99402.56
2022-10-02T01:04:14.630Z,99397.38
2022-10-02T01:07:04.851Z,99378.56
2022-10-02T01:09:52.199Z,99315.31
2022-10-02T01:12:40.123Z,99349.16
2022-10-02T01:15:32.718Z,99377.44
2022-10-02T01:18:20.722Z,99370.63
2022-10-02T01:21:13.966Z,99361.34
2022-10-02T01:24:11.191Z,99355.56
2022-10-02T01:27:00.125Z,99355.38
2022-10-02T01:29:49.972Z,99338.34
2022-10-02T01:32:42.465Z,99349.09
2022-10-02T01:35:33.383Z,99347.66
2022-10-02T01:38:24.832Z,99322.31
2022-10-02T01:41:12.521Z,99312.03
2022-10-02T01:44:03.705Z,99313.34
2022-10-02T01:47:01.130Z,99315.69
2022-10-02T01:50:04.197Z,99307.63
2022-10-02T01:53:01.276Z,99303.66
2022-10-02T01:55:54.342Z,99306.88
2022-10-02T01:58:49.977Z,99300.06
2022-10-02T02:01:48.961Z,99287.41
2022-10-02T02:04:43.852Z,99250.75
2022-10-02T02:07:36.555Z,99282.31
2022-10-02T02:10:28.817Z,99281.63
2022-10-02T02:13:21.754Z,99287.31
2022-10-02T02:16:15.148Z,99271.22
2022-10-02T02:19:11.004Z,99260.47
2022-10-02T02:22:02.454Z,99244.72
2022-10-02T02:24:57.036Z,99240.41
2022-10-02T02:27:47.620Z,99224.69
2022-10-02T02:30:38.998Z,99217.63
2022-10-02T02:33:32.880Z,99153.69
2022-10-02T02:36:26.233Z,99192.84
2022-10-02T02:39:18.224Z,99176.06
2022-10-02T02:42:11.118Z,99164.47
2022-10-02T02:45:04.593Z,99166.72
2022-10-02T02:47:55.307Z,99116.38
2022-10-02T02:50:47.559Z,99135.78
2022-10-02T02:53:42.782Z,99150.53
2022-10-02T02:56:34.850Z,99149.47
2022-10-02T02:59:24.703Z,99133.38
2022-10-02T03:02:11.971Z,99118.28
2022-10-02T03:04:59.838Z,99147.16
2022-10-02T03:07:53.502Z,99138.91
2022-10-02T03:10:54.723Z,99128.34
2022-10-02T03:13:53.626Z,99130.72
2022-10-02T03:16:49.026Z,99106.88
2022-10-02T03:19:44.893Z,99110.63
2022-10-02T03:22:48.083Z,99084.94
2022-10-02T03:25:43.159Z,99080.34
2022-10-02T03:28:54.961Z,99116.19
2022-10-02T03:31:46.603Z,99103.31
2022-10-02T03:34:35.270Z,99088.41
2022-10-02T03:37:25.080Z,99087.84
2022-10-02T03:40:13.109Z,99075.41
2022-10-02T03:43:01.031Z,99081.91
2022-10-02T03:45:51.681Z,99099.28
2022-10-02T03:48:39.582Z,99086.88
2022-10-02T03:51:27.027Z,99100.16
2022-10-02T03:54:18.021Z,99120.44
2022-10-02T03:57:07.718Z,99122.69
2022-10-02T04:00:02.907Z,99085.75
2022-10-02T04:02:59.394Z,99067.59
2022-10-02T04:05:53.124Z,99096.81
2022-10-02T04:08:48.485Z,99078.00
2022-10-02T04:11:41.018Z,99047.84
2022-10-02T04:14:34.016Z,99078.00
2022-10-02T04:17:25.627Z,99085.97
2022-10-02T04:20:21.502Z,99053.06
2022-10-02T04:23:17.291Z,99062.22
2022-10-02T04:26:12.327Z,99062.34
2022-10-02T04:29:06.793Z,99045.09
2022-10-02T04:32:06.943Z,98966.59
2022-10-02T04:34:55.040Z,99026.72
2022-10-02T04:37:57.122Z,98972.34
2022-10-02T04:40:56.986Z,98994.28
2022-10-02T04:44:01.309Z,99021.78
2022-10-02T04:47:05.067Z,99006.25
2022-10-02T04:50:06.285Z,98959.13
2022-10-02T04:53:13.313Z,98976.09
2022-10-02T04:56:15.209Z,98980.19
2022-10-02T04:59:16.626Z,98919.56
2022-10-02T05:02:18.069Z,98943.00
2022-10-02T05:05:19.327Z,98947.59
2022-10-02T05:08:27.901Z,98938.97
2022-10-02T05:11:55.657Z,98909.38
2022-10-02T05:15:17.740Z,98902.16
2022-10-02T05:18:22.239Z,98905.88
2022-10-02T05:21:28.141Z,98919.97
2022-10-02T05:24:34.996Z,98915.47
2022-10-02T05:27:51.537Z,98913.06
2022-10-02T05:30:47.898Z,98866.28
2022-10-02T05:33:51.060Z,98888.44
2022-10-02T05:36:51.023Z,98921.81
2022-10-02T05:39:53.326Z,98929.81
2022-10-02T05:42:46.493Z,98959.84
2022-10-02T05:45:38.990Z,98928.91
2022-10-02T05:48:30.462Z,98914.88
2022-10-02T05:51:24.428Z,98894.75
2022-10-02T05:54:16.783Z,98896.28
2022-10-02T05:57:12.110Z,98896.44
2022-10-02T06:00:09.998Z,98892.34
2022-10-02T06:03:08.332Z,98889.34
2022-10-02T06:06:01.580Z,98897.63
2022-10-02T06:08:54.709Z,98885.41
2022-10-02T06:11:47.905Z,98881.44
2022-10-02T06:14:40.819Z,98874.16
2022-10-02T06:17:32.750Z,98830.38
2022-10-02T06:20:26.833Z,98866.84
2022-10-02T06:23:20.565Z,98851.06
2022-10-02T06:26:14.101Z,98856.59
2022-10-02T06:29:06.987Z,98844.16
2022-10-02T06:32:07.466Z,98858.97
2022-10-02T06:34:56.581Z,98830.84
2022-10-02T06:38:10.823Z,98859.69
2022-10-02T06:41:04.519Z,98845.75
2022-10-02T06:44:17.138Z,98830.56
2022-10-02T06:47:20.010Z,98829.78
2022-10-02T06:50:28.698Z,98827.75
2022-10-02T06:53:45.441Z,98828.09
2022-10-02T06:56:46.008Z,98825.56
2022-10-02T06:59:50.313Z,98829.34
2022-10-02T07:03:06.769Z,98745.56
2022-10-02T07:06:09.794Z,98819.25
2022-10-02T07:09:31.543Z,98810.59
2022-10-02T07:12:48.919Z,98812.78
2022-10-02T07:16:17.853Z,98810.84
2022-10-02T07:19:25.089Z,98780.63
2022-10-02T07:22:44.495Z,98795.09
2022-10-02T07:25:53.681Z,98773.16
2022-10-02T07:28:45.846Z,98754.31
2022-10-02T07:31:41.746Z,98780.50
2022-10-02T07:34:40.382Z,98769.06
2022-10-02T07:37:39.289Z,98783.38
2022-10-02T07:40:37.811Z,98762.66
2022-10-02T07:43:41.061Z,98745.41
2022-10-02T07:46:37.664Z,98776.66
2022-10-02T07:49:44.571Z,98765.78
2022-10-02T07:52:40.651Z,98781.22
2022-10-02T07:55:29.040Z,98778.81
2022-10-02T07:58:24.086Z,98774.22
2022-10-02T08:01:17.346Z,98780.13
2022-10-02T08:04:11.428Z,98776.22
2022-10-02T08:07:02.512Z,98767.00
2022-10-02T08:09:55.041Z,98738.41
2022-10-02T08:12:49.349Z,98740.31
2022-10-02T08:15:38.882Z,98741.97
2022-10-02T08:18:35.306Z,98709.03
2022-10-02T08:21:26.817Z,98717.75
2022-10-02T08:24:19.250Z,98723.34
2022-10-02T08:27:10.470Z,98711.94
2022-10-02T08:30:03.629Z,98717.38
2022-10-02T08:32:51.023Z,98716.63
2022-10-02T08:35:48.068Z,98659.19
2022-10-02T08:38:42.540Z,98709.81
2022-10-02T08:42:04.416Z,98712.34
2022-10-02T08:45:11.429Z,98695.56
2022-10-02T08:48:55.568Z,98676.69
2022-10-02T08:52:12.602Z,98690.66
2022-10-02T08:55:26.540Z,98689.25
2022-10-02T08:58:44.306Z,98685.84
2022-10-02T09:02:02.141Z,98659.06
2022-10-02T09:05:29.529Z,98686.63
2022-10-02T09:08:57.391Z,98688.72
2022-10-02T09:12:26.828Z,98697.06
2022-10-02T09:15:19.443Z,98684.28
2022-10-02T09:18:19.713Z,98692.44
2022-10-02T09:21:18.852Z,98678.41
2022-10-02T09:24:43.636Z,98689.75
2022-10-02T09:28:05.214Z,98686.47
2022-10-02T09:31:19.256Z,98693.91
2022-10-02T09:34:35.777Z,98666.94
2022-10-02T09:38:09.126Z,98685.63
2022-10-02T09:41:25.124Z,98701.97
2022-10-02T09:44:46.249Z,98700.25
2022-10-02T09:48:12.902Z,98700.22
2022-10-02T09:51:32.520Z,98672.66
2022-10-02T09:54:50.544Z,98678.91
2022-10-02T09:58:08.098Z,98667.72
2022-10-02T10:01:20.167Z,98674.72
2022-10-02T10:04:54.089Z,98670.56
2022-10-02T10:08:17.172Z,98678.78
2022-10-02T10:11:32.341Z,98663.94
2022-10-02T10:14:55.554Z,98680.03
2022-10-02T10:18:36.738Z,98680.84
2022-10-02T10:22:23.681Z,98667.38
2022-10-02T10:25:41.754Z,98668.53
2022-10-02T10:28:48.391Z,98673.22
2022-10-02T10:32:13.181Z,98683.97
2022-10-02T10:35:17.908Z,98682.84
2022-10-02T10:38:33.130Z,98674.81
2022-10-02T10:41:52.317Z,98687.47
2022-10-02T10:45:20.246Z,98678.13
2022-10-02T10:48:30.383Z,98671.81
2022-10-02T10:51:30.921Z,98696.94
2022-10-02T10:54:52.840Z,98701.47
2022-10-02T10:58:04.046Z,98723.25
2022-10-02T11:01:08.314Z,98718.34
2022-10-02T11:04:16.285Z,98735.28
2022-10-02T11:07:27.510Z,98732.06
2022-10-02T11:10:29.781Z,98748.63
2022-10-02T11:13:49.048Z,98733.25
2022-10-02T11:17:18.641Z,98731.44
2022-10-02T11:20:23.942Z,98727.25
2022-10-02T11:23:56.832Z,98734.38
2022-10-02T11:27:15.669Z,98741.78
2022-10-02T11:30:24.222Z,98752.31
2022-10-02T11:33:42.335Z,98746.03
2022-10-02T11:36:48.960Z,98691.22
2022-10-02T11:39:54.595Z,98773.38
2022-10-02T11:43:09.036Z,98754.22
2022-10-02T11:46:22.021Z,98762.91
2022-10-02T11:49:32.867Z,98767.25
2022-10-02T11:52:38.487Z,98762.69
2022-10-02T11:55:39.364Z,98756.97
2022-10-02T11:58:45.517Z,98757.56
2022-10-02T12:01:43.230Z,98748.16
2022-10-02T12:04:42.397Z,98753.63
2022-10-02T12:07:40.285Z,98761.25
2022-10-02T12:10:37.043Z,98721.84
2022-10-02T12:14:00.062Z,98746.69
2022-10-02T12:17:04.827Z,98747.31
2022-10-02T12:20:33.095Z,98748.44
2022-10-02T12:23:53.040Z,98741.75
2022-10-02T12:27:02.725Z,98741.16
2022-10-02T12:30:13.933Z,98701.31
2022-10-02T12:33:25.431Z,98754.09
2022-10-02T12:36:33.732Z,98750.72
2022-10-02T12:39:36.266Z,98727.44
2022-10-02T12:42:56.231Z,98749.72
2022-10-02T12:46:19.760Z,98739.56
2022-10-02T12:49:26.455Z,98738.88
2022-10-02T12:52:51.899Z,98710.09
2022-10-02T12:56:55.248Z,98737.72
2022-10-02T12:59:55.997Z,98707.59
2022-10-02T13:03:31.010Z,98688.25
2022-10-02T13:06:48.162Z,98731.03
2022-10-02T13:09:47.818Z,98743.41
2022-10-02T13:12:52.320Z,98714.88
2022-10-02T13:16:14.364Z,98740.16
2022-10-02T13:19:20.350Z,98732.84
2022-10-02T13:22:55.757Z,98756.88
2022-10-02T13:26:28.214Z,98720.19
2022-10-02T13:34:15.358Z,98734.47
2022-10-02T13:37:15.517Z,98727.00
2022-10-02T13:40:37.618Z,98723.88
2022-10-02T13:43:41.199Z,98736.97
2022-10-02T13:47:31.380Z,98747.31
2022-10-02T13:50:37.755Z,98765.03
2022-10-02T13:53:58.129Z,98708.28
2022-10-02T13:56:53.097Z,98782.00
2022-10-02T13:59:56.930Z,98748.81
2022-10-02T14:02:57.323Z,98745.31
2022-10-02T14:05:55.703Z,98746.94
2022-10-02T14:09:02.047Z,98732.31
2022-10-02T14:12:06.257Z,98705.97
2022-10-02T14:15:26.680Z,98734.31
2022-10-02T14:18:40.898Z,98762.34
2022-10-02T14:21:36.975Z,98755.84
2022-10-02T14:25:04.536Z,98775.06
2022-10-02T14:28:35.304Z,98759.75
2022-10-02T14:31:44.097Z,98803.97
2022-10-02T14:35:14.508Z,98792.31
2022-10-02T14:38:32.556Z,98804.84
2022-10-02T14:41:43.362Z,98782.28
2022-10-02T14:45:00.880Z,98814.28
2022-10-02T14:48:16.576Z,98804.78
2022-10-02T14:51:27.919Z,98776.47
2022-10-02T14:54:29.941Z,98818.91
2022-10-02T14:57:37.026Z,98834.72
2022-10-02T15:00:27.589Z,98815.50
2022-10-02T15:03:43.880Z,98827.78
2022-10-02T15:06:53.847Z,98773.34
2022-10-02T15:09:58.800Z,98835.22
2022-10-02T15:13:11.955Z,98856.47
2022-10-02T15:16:33.519Z,98807.91
2022-10-02T15:19:27.388Z,98853.06
2022-10-02T15:22:20.323Z,98863.16
2022-10-02T15:25:18.900Z,98867.13
2022-10-02T15:28:35.342Z,98854.75
2022-10-02T15:31:33.641Z,98859.31
2022-10-02T15:34:30.314Z,98777.91
2022-10-02T15:37:27.132Z,98836.72
2022-10-02T15:40:31.033Z,98885.16
2022-10-02T15:43:46.083Z,98912.28
2022-10-02T15:46:49.798Z,98907.19
2022-10-02T15:49:52.484Z,98904.06
2022-10-02T15:52:47.479Z,98918.72
2022-10-02T15:55:42.424Z,98892.06
2022-10-02T15:58:43.450Z,98930.63
2022-10-02T16:01:50.982Z,98918.81
2022-10-02T16:04:51.171Z,98899.19
2022-10-02T16:08:05.136Z,98923.09
2022-10-02T16:11:31.248Z,98869.50
2022-10-02T16:14:29.205Z,98932.84
2022-10-02T16:17:42.455Z,98908.47
2022-10-02T16:20:52.523Z,98919.44
2022-10-02T16:24:26.739Z,98922.19
2022-10-02T16:27:32.977Z,98930.41
2022-10-02T16:30:22.541Z,98892.28
2022-10-02T16:33:21.323Z,98913.66
2022-10-02T16:36:32.374Z,98881.84
2022-10-02T16:39:42.644Z,98944.41
2022-10-02T16:42:48.264Z,98843.25
2022-10-02T16:45:55.443Z,98863.72
2022-10-02T16:48:53.164Z,98931.75
2022-10-02T16:51:52.294Z,98927.28
2022-10-02T16:54:46.905Z,98931.31
2022-10-02T16:57:55.866Z,98878.13
2022-10-02T17:00:55.213Z,98896.53
2022-10-02T17:03:57.258Z,98934.50
2022-10-02T17:06:50.661Z,98960.53
2022-10-02T17:09:51.373Z,98946.94
2022-10-02T17:12:48.973Z,98927.25
2022-10-02T17:15:47.742Z,98960.75
2022-10-02T17:18:43.799Z,98948.94
2022-10-02T17:21:44.838Z,98905.88
2022-10-02T17:24:39.663Z,98961.50
2022-10-02T17:27:43.382Z,98971.34
2022-10-02T17:30:50.601Z,98957.91
2022-10-02T17:33:46.991Z,98973.53
2022-10-02T17:36:45.858Z,98969.56
2022-10-02T17:39:54.325Z,98963.88
2022-10-02T17:43:15.832Z,98967.94
2022-10-02T17:46:32.513Z,98973.38
2022-10-02T17:49:31.097Z,98947.19
2022-10-02T17:52:48.188Z,98936.38
2022-10-02T17:56:31.250Z,98961.06
2022-10-02T17:59:43.908Z,98944.00
2022-10-02T18:02:51.896Z,98948.97
2022-10-02T18:05:52.378Z,98968.53
2022-10-02T18:09:13.188Z,98945.25
2022-10-02T18:12:23.623Z,98972.59
2022-10-02T18:15:31.771Z,98961.31
2022-10-02T18:18:31.322Z,98984.78
2022-10-02T18:21:32.409Z,98974.81
2022-10-02T18:28:46.107Z,98941.41
2022-10-02T18:32:00.062Z,98972.78
2022-10-02T18:35:15.846Z,98945.84
2022-10-02T18:38:26.656Z,98972.56
2022-10-02T18:41:27.598Z,98953.34
2022-10-02T18:44:29.574Z,98974.25
2022-10-02T18:47:34.747Z,98940.94
2022-10-02T18:50:39.809Z,98968.00
2022-10-02T18:53:52.812Z,98962.41
2022-10-02T18:56:55.242Z,98961.16
2022-10-02T18:59:56.303Z,98953.72
2022-10-02T19:03:11.034Z,98956.22
2022-10-02T19:06:09.328Z,98965.16
2022-10-02T19:09:20.366Z,98965.19
2022-10-02T19:12:23.403Z,98947.00
2022-10-02T19:15:22.862Z,98940.09
2022-10-02T19:18:19.403Z,98966.00
2022-10-02T19:21:11.180Z,98940.50
2022-10-02T19:24:07.652Z,98955.41
2022-10-02T19:27:00.774Z,98935.03
2022-10-02T19:29:56.179Z,98944.84
2022-10-02T19:32:49.688Z,98954.19
2022-10-02T19:35:44.104Z,98956.59
2022-10-02T19:38:34.019Z,98946.47
2022-10-02T19:41:24.277Z,98942.88
2022-10-02T19:44:21.761Z,98887.78
2022-10-02T19:47:18.097Z,98939.94
2022-10-02T19:50:08.822Z,98930.34
2022-10-02T19:53:01.170Z,98925.28
2022-10-02T19:55:54.019Z,98920.78
2022-10-02T19:58:45.365Z,98940.31
2022-10-02T20:01:45.242Z,98920.53
2022-10-02T20:04:35.299Z,98931.97
2022-10-02T20:07:26.190Z,98913.50
2022-10-02T20:10:19.099Z,98909.28
2022-10-02T20:13:16.334Z,98904.31
2022-10-02T20:16:25.403Z,98920.97
2022-10-02T20:19:19.229Z,98915.63
2022-10-02T20:22:24.559Z,98907.22
2022-10-02T20:25:18.898Z,98899.59
2022-10-02T20:28:17.401Z,98838.16
2022-10-02T20:31:11.723Z,98838.28
2022-10-02T20:34:02.793Z,98912.25
2022-10-02T20:36:57.346Z,98885.41
2022-10-02T20:39:51.703Z,98931.03
2022-10-02T20:42:42.087Z,98929.19
2022-10-02T20:45:37.262Z,98916.31
2022-10-02T20:49:09.080Z,98927.69
2022-10-02T20:52:23.326Z,98918.78
2022-10-02T20:55:20.349Z,98926.31
2022-10-02T20:58:33.741Z,98921.28
2022-10-02T21:01:22.483Z,98916.81
2022-10-02T21:04:53.381Z,98920.88
2022-10-02T21:08:07.737Z,98920.72
2022-10-02T21:11:15.680Z,98909.72
2022-10-02T21:14:41.165Z,98920.72
2022-10-02T21:17:46.945Z,98919.16
2022-10-02T21:21:22.269Z,98923.94
2022-10-02T21:24:36.278Z,98918.97
2022-10-02T21:28:01.590Z,98928.16
2022-10-02T21:31:04.354Z,98909.88
2022-10-02T21:33:58.846Z,98913.84
2022-10-02T21:36:53.063Z,98854.25
2022-10-02T21:40:19.421Z,98909.94
2022-10-02T21:43:35.845Z,98914.00
2022-10-02T21:47:05.175Z,98901.44
2022-10-02T21:50:47.343Z,98904.19
2022-10-02T21:54:14.679Z,98909.81
2022-10-02T21:57:37.817Z,98902.75
2022-10-02T22:00:27.964Z,98901.03
2022-10-02T22:03:49.415Z,98904.44
2022-10-02T22:06:54.654Z,98891.66
2022-10-02T22:09:50.253Z,98894.78
2022-10-02T22:12:52.153Z,98904.50
2022-10-02T22:15:48.819Z,98894.41
2022-10-02T22:18:47.989Z,98896.38
2022-10-02T22:21:56.740Z,98894.38
2022-10-02T22:24:58.604Z,98890.72
2022-10-02T22:28:06.332Z,98851.94
2022-10-02T22:31:27.215Z,98866.41
2022-10-02T22:34:32.609Z,98889.69
2022-10-02T22:37:46.366Z,98888.31
2022-10-02T22:40:45.605Z,98870.91
2022-10-02T22:43:42.392Z,98884.94
2022-10-02T22:46:41.565Z,98871.03
2022-10-02T22:49:34.670Z,98831.50
2022-10-02T22:52:27.799Z,98891.72
2022-10-02T22:55:21.210Z,98880.94
2022-10-02T22:58:15.718Z,98867.19
2022-10-02T23:01:12.874Z,98794.94
2022-10-02T23:04:10.116Z,98876.78
2022-10-02T23:07:05.549Z,98873.00
2022-10-02T23:10:01.021Z,98875.38
2022-10-02T23:12:58.246Z,98874.91
2022-10-02T23:15:54.334Z,98882.16
2022-10-02T23:18:47.403Z,98875.88
2022-10-02T23:21:46.262Z,98867.69
2022-10-02T23:24:39.960Z,98842.16
2022-10-02T23:27:34.550Z,98875.00
2022-10-02T23:30:23.371Z,98827.94
2022-10-02T23:33:23.106Z,98857.03
2022-10-02T23:36:22.405Z,98834.16
2022-10-02T23:39:20.151Z,98852.94
2022-10-02T23:42:12.447Z,98818.97
2022-10-02T23:45:08.529Z,98865.44
2022-10-02T23:48:01.259Z,98829.97
2022-10-02T23:51:02.109Z,98791.53
2022-10-02T23:54:11.580Z,98842.66
2022-10-02T23:57:17.708Z,98848.06
